Time;durP1;ratioP1;P1;durP2;ratioP2;P2;SDS_P1;SDS_P2;PMS_P1;PMS_P2;Temp;Humidity;BMP_temperature;BMP_pressure;BME280_temperature;BME280_humidity;BME280_pressure;Samples;Min_cycle;Max_cycle;Signal;HPM_P1;HPM_P2
2021/09/21 00:02:03;;;;;;;5.22;2.40;;;;;;;10.19;67.76;100264.53;1749074;79;21039;-59
2021/09/21 00:04:29;;;;;;;5.05;2.33;;;;;;;10.18;67.82;100266.30;1751542;79;21309;-59
2021/09/21 00:06:56;;;;;;;5.10;2.45;;;;;;;10.11;67.60;100268.25;1751676;79;21078;-59
2021/09/21 00:09:23;;;;;;;4.53;2.12;;;;;;;10.10;67.85;100273.97;1747778;79;21140;-60
2021/09/21 00:11:51;;;;;;;4.53;2.37;;;;;;;10.18;67.82;100272.88;1735508;80;21023;-59
2021/09/21 00:14:19;;;;;;;3.70;1.77;;;;;;;10.25;67.75;100268.45;1751617;79;21420;-59
2021/09/21 00:16:45;;;;;;;4.33;2.00;;;;;;;10.23;67.63;100268.57;1747942;79;21036;-60
2021/09/21 00:19:14;;;;;;;4.37;1.72;;;;;;;10.15;67.57;100280.17;1746943;79;21024;-59
2021/09/21 00:21:40;;;;;;;5.10;2.27;;;;;;;10.04;66.85;100266.09;1750411;79;21525;-59
2021/09/21 00:24:06;;;;;;;4.87;2.40;;;;;;;9.99;67.25;100272.69;1744596;79;21554;-59
2021/09/21 00:26:33;;;;;;;8.05;2.00;;;;;;;9.90;67.09;100273.41;1747689;79;21054;-59
2021/09/21 00:29:00;;;;;;;4.45;1.55;;;;;;;9.81;67.59;100274.48;1753652;79;21028;-59
2021/09/21 00:31:37;;;;;;;3.92;1.52;;;;;;;9.84;67.49;100278.67;1747838;79;21099;-60
2021/09/21 00:34:06;;;;;;;4.85;1.87;;;;;;;9.88;67.09;100283.20;1750737;79;21135;-58
2021/09/21 00:36:24;;;;;;;5.55;1.80;;;;;;;9.83;66.62;100277.84;1742856;79;21048;-59
2021/09/21 00:38:50;;;;;;;4.17;1.67;;;;;;;9.79;66.49;100279.03;1737528;80;21087;-59
2021/09/21 00:41:17;;;;;;;5.03;1.47;;;;;;;9.74;66.29;100275.92;1748155;79;21091;-60
2021/09/21 00:43:46;;;;;;;4.15;1.40;;;;;;;9.67;66.13;100287.87;1733364;80;21023;-60
2021/09/21 00:46:13;;;;;;;3.95;1.52;;;;;;;9.56;66.36;100286.55;1734148;80;21155;-59
2021/09/21 00:48:39;;;;;;;3.67;1.45;;;;;;;9.54;66.33;100284.53;1736220;80;21023;-60
2021/09/21 00:51:07;;;;;;;4.08;1.62;;;;;;;9.58;66.58;100284.64;1754330;79;21095;-60
2021/09/21 00:53:33;;;;;;;3.72;1.52;;;;;;;9.64;66.69;100282.86;1747908;79;21035;-60
2021/09/21 00:55:59;;;;;;;4.78;1.65;;;;;;;9.60;66.88;100285.34;1751297;79;21067;-60
2021/09/21 00:58:26;;;;;;;3.80;1.40;;;;;;;9.54;66.67;100287.16;1729879;80;21047;-60
2021/09/21 01:00:53;;;;;;;2.83;1.25;;;;;;;9.48;66.72;100285.36;1743482;79;21019;-59
2021/09/21 01:03:19;;;;;;;3.98;1.70;;;;;;;9.39;67.06;100293.94;1743917;79;21091;-59
2021/09/21 01:05:47;;;;;;;5.37;1.55;;;;;;;9.40;67.24;100294.30;1749093;79;21044;-59
2021/09/21 01:08:14;;;;;;;4.90;1.62;;;;;;;9.51;67.10;100296.58;1749600;79;21150;-60
2021/09/21 01:10:40;;;;;;;3.98;1.45;;;;;;;9.57;67.05;100287.75;1749463;79;21192;-59
2021/09/21 01:13:07;;;;;;;3.60;1.22;;;;;;;9.59;67.05;100288.95;1751484;79;21063;-59
2021/09/21 01:15:34;;;;;;;3.95;1.45;;;;;;;9.59;67.28;100291.58;1749050;79;21045;-59
2021/09/21 01:18:00;;;;;;;6.20;2.40;;;;;;;9.57;67.36;100298.75;1747624;79;21130;-59
2021/09/21 01:20:29;;;;;;;5.60;1.87;;;;;;;9.49;67.23;100294.06;1750800;79;21021;-59
2021/09/21 01:22:56;;;;;;;3.25;1.25;;;;;;;9.47;67.13;100299.44;1750638;79;21154;-59
2021/09/21 01:25:25;;;;;;;3.55;1.20;;;;;;;9.52;67.15;100293.84;1753823;79;21055;-59
2021/09/21 01:27:52;;;;;;;3.80;1.50;;;;;;;9.58;67.01;100299.08;1733639;79;21078;-59
2021/09/21 01:30:19;;;;;;;3.20;1.20;;;;;;;9.56;66.90;100304.45;1732413;80;21008;-59
2021/09/21 01:32:45;;;;;;;4.65;1.57;;;;;;;9.48;66.88;100302.89;1756672;79;21024;-59
2021/09/21 01:35:13;;;;;;;3.30;1.35;;;;;;;9.41;66.63;100301.21;1757773;79;21147;-59
2021/09/21 01:37:42;;;;;;;3.52;1.32;;;;;;;9.30;66.89;100307.30;1750836;79;21039;-59
2021/09/21 01:40:09;;;;;;;4.22;1.72;;;;;;;9.19;67.18;100315.63;1754862;79;21094;-59
2021/09/21 01:42:42;;;;;;;5.40;1.40;;;;;;;9.05;67.34;100313.56;1758818;79;21033;-59
2021/09/21 01:45:10;;;;;;;3.83;1.47;;;;;;;8.98;67.77;100305.79;1757336;79;21157;-59
2021/09/21 01:47:36;;;;;;;3.22;1.15;;;;;;;9.01;67.92;100306.88;1753713;79;21084;-58
2021/09/21 01:52:41;;;;;;;3.60;1.45;;;;;;;9.09;67.92;100307.14;1761822;79;21045;-59
2021/09/21 01:55:11;;;;;;;3.92;1.45;;;;;;;9.04;68.17;100315.80;1751647;79;21057;-59
2021/09/21 02:00:20;;;;;;;4.10;1.57;;;;;;;8.93;68.56;100313.17;1757184;79;21907;-59
2021/09/21 02:02:48;;;;;;;6.03;2.27;;;;;;;8.87;68.75;100307.87;1754004;79;21053;-59
2021/09/21 02:05:14;;;;;;;3.17;1.45;;;;;;;8.86;68.94;100306.68;1758111;79;21070;-59
2021/09/21 02:07:40;;;;;;;4.10;1.52;;;;;;;8.92;68.79;100309.69;1756827;79;21027;-58
2021/09/21 02:10:08;;;;;;;4.35;1.50;;;;;;;8.94;68.60;100313.51;1756615;79;21113;-60
2021/09/21 02:12:35;;;;;;;5.55;2.10;;;;;;;8.93;68.76;100307.92;1735814;79;21141;-59
2021/09/21 02:15:03;;;;;;;5.00;2.10;;;;;;;8.95;68.21;100311.26;1754608;79;21146;-61
2021/09/21 02:17:30;;;;;;;4.72;1.62;;;;;;;8.94;68.37;100317.45;1757599;79;21787;-60
2021/09/21 02:19:57;;;;;;;4.00;1.40;;;;;;;8.92;68.14;100308.37;1740512;79;21074;-60
2021/09/21 02:22:25;;;;;;;3.90;1.45;;;;;;;8.89;68.44;100316.95;1757768;79;22328;-60
2021/09/21 02:24:52;;;;;;;3.85;1.65;;;;;;;8.86;68.39;100312.78;1732835;79;21193;-60
2021/09/21 02:27:18;;;;;;;4.60;1.02;;;;;;;8.91;68.33;100303.27;1731606;79;21051;-59
2021/09/21 02:29:44;;;;;;;7.30;1.35;;;;;;;8.95;68.51;100311.75;1757147;79;21038;-59
2021/09/21 02:32:11;;;;;;;4.67;1.45;;;;;;;8.96;68.03;100314.71;1755671;79;21066;-59
2021/09/21 02:34:40;;;;;;;3.98;1.47;;;;;;;8.88;68.26;100315.30;1756658;79;21086;-59
2021/09/21 02:37:06;;;;;;;4.87;1.70;;;;;;;8.81;68.53;100311.44;1755018;79;21644;-59
2021/09/21 02:39:33;;;;;;;4.20;1.77;;;;;;;8.77;68.81;100315.25;1753770;79;21056;-59
2021/09/21 02:42:01;;;;;;;3.20;1.20;;;;;;;8.71;68.84;100324.41;1755998;79;21516;-59
2021/09/21 02:44:30;;;;;;;3.75;1.40;;;;;;;8.70;68.94;100318.30;1751213;79;21569;-59
2021/09/21 02:46:56;;;;;;;3.42;1.35;;;;;;;8.76;68.95;100321.43;1756393;79;21027;-59
2021/09/21 02:49:23;;;;;;;3.27;1.22;;;;;;;8.77;68.68;100329.67;1760707;79;21093;-59
2021/09/21 02:51:49;;;;;;;3.92;1.47;;;;;;;8.70;68.76;100322.73;1753950;79;23188;-60
2021/09/21 02:54:16;;;;;;;5.35;1.50;;;;;;;8.64;68.97;100333.20;1756582;79;21063;-60
2021/09/21 02:56:43;;;;;;;4.22;1.40;;;;;;;8.60;68.87;100327.80;1748272;79;21038;-60
2021/09/21 02:59:10;;;;;;;3.35;1.42;;;;;;;8.54;69.03;100326.95;1746150;79;21044;-60
2021/09/21 03:01:38;;;;;;;3.35;1.27;;;;;;;8.58;69.22;100330.19;1751801;79;21028;-60
2021/09/21 03:04:11;;;;;;;4.35;1.60;;;;;;;8.65;69.19;100333.55;1749189;79;20985;-60
2021/09/21 03:06:40;;;;;;;3.98;1.30;;;;;;;8.68;69.05;100325.94;1751258;79;21071;-59
2021/09/21 03:11:50;;;;;;;5.70;1.40;;;;;;;8.67;68.75;100336.89;1714679;79;21066;-60
2021/09/21 03:19:27;;;;;;;4.25;1.05;;;;;;;8.63;68.55;100339.39;1749380;79;21133;-60
2021/09/21 03:21:54;;;;;;;4.35;1.57;;;;;;;8.71;68.35;100333.11;1751957;79;21851;-61
2021/09/21 03:24:21;;;;;;;6.60;1.40;;;;;;;8.72;68.43;100332.63;1757903;79;21051;-61
2021/09/21 03:26:47;;;;;;;3.37;1.00;;;;;;;8.72;68.54;100340.05;1756171;79;23334;-61
2021/09/21 03:29:14;;;;;;;3.70;1.47;;;;;;;8.69;68.78;100335.02;1751602;79;21130;-60
2021/09/21 03:31:41;;;;;;;2.92;1.10;;;;;;;8.69;69.14;100341.57;1757442;79;21153;-61
2021/09/21 03:34:07;;;;;;;3.10;1.32;;;;;;;8.67;69.30;100340.82;1751391;80;21037;-59
2021/09/21 03:36:33;;;;;;;3.17;1.30;;;;;;;8.65;69.19;100338.80;1745041;80;21137;-61
2021/09/21 03:39:00;;;;;;;4.30;1.20;;;;;;;8.69;69.20;100335.47;1720936;81;22184;-61
2021/09/21 03:41:26;;;;;;;3.30;0.98;;;;;;;8.73;69.36;100333.00;1682258;83;21015;-61
2021/09/21 03:43:55;;;;;;;4.22;1.30;;;;;;;8.71;69.22;100329.17;1754117;79;21036;-61
2021/09/21 03:46:22;;;;;;;2.65;0.80;;;;;;;8.68;69.44;100334.64;1719686;81;21075;-62
2021/09/21 03:48:49;;;;;;;2.72;1.00;;;;;;;8.67;69.38;100336.06;1745886;80;21277;-59
2021/09/21 03:51:15;;;;;;;3.45;1.25;;;;;;;8.63;69.20;100338.08;1743585;79;21148;-60
2021/09/21 03:53:42;;;;;;;2.12;0.70;;;;;;;8.58;69.48;100343.30;1744471;79;21074;-59
2021/09/21 03:56:08;;;;;;;2.17;0.88;;;;;;;8.55;69.08;100335.16;1742224;80;21036;-60
2021/09/21 03:58:34;;;;;;;4.12;1.27;;;;;;;8.59;69.06;100335.78;1724712;81;21023;-60
2021/09/21 04:01:01;;;;;;;2.85;1.02;;;;;;;8.60;68.88;100333.05;1748210;80;20992;-62
2021/09/21 04:03:27;;;;;;;3.47;1.00;;;;;;;8.58;68.62;100331.50;1743474;80;21828;-60
2021/09/21 04:05:55;;;;;;;3.37;1.10;;;;;;;8.57;68.70;100341.13;1747146;80;21036;-60
2021/09/21 04:08:23;;;;;;;3.02;1.00;;;;;;;8.55;68.44;100332.55;1746665;80;21051;-61
2021/09/21 04:10:50;;;;;;;4.25;1.02;;;;;;;8.54;68.32;100334.83;1745818;80;21059;-61
2021/09/21 04:13:16;;;;;;;2.47;0.98;;;;;;;8.50;68.35;100329.42;1745953;80;21132;-61
2021/09/21 04:15:42;;;;;;;3.22;1.17;;;;;;;8.53;68.01;100330.52;1751404;79;21716;-61
2021/09/21 04:18:10;;;;;;;4.10;0.93;;;;;;;8.57;67.75;100333.27;1744371;79;21049;-61
2021/09/21 04:20:37;;;;;;;3.20;0.90;;;;;;;8.56;67.60;100340.78;1747913;80;21043;-60
2021/09/21 04:23:03;;;;;;;3.50;1.15;;;;;;;8.51;67.86;100335.04;1742250;80;21044;-61
2021/09/21 04:25:31;;;;;;;2.87;1.00;;;;;;;8.50;68.18;100345.16;1743449;80;21040;-60
2021/09/21 04:27:58;;;;;;;2.75;0.80;;;;;;;8.48;68.21;100337.88;1746273;80;21956;-61
2021/09/21 04:30:27;;;;;;;2.67;0.90;;;;;;;8.48;67.98;100341.81;1745406;80;21101;-61
2021/09/21 04:32:54;;;;;;;2.90;0.98;;;;;;;8.51;67.97;100342.91;1750470;79;21074;-61
2021/09/21 04:35:21;;;;;;;4.33;0.90;;;;;;;8.59;68.00;100341.02;1728099;81;21066;-59
2021/09/21 04:37:49;;;;;;;3.47;0.80;;;;;;;8.67;67.58;100347.38;1750261;79;21141;-59
2021/09/21 04:40:16;;;;;;;3.33;0.88;;;;;;;8.69;67.13;100348.13;1741387;79;21343;-60
2021/09/21 04:42:42;;;;;;;3.33;1.12;;;;;;;8.66;67.28;100347.04;1748275;79;21039;-61
2021/09/21 04:47:08;;;;;;;3.10;0.88;;;;;;;8.61;67.64;100336.05;1791271;78;22763;-58
2021/09/21 04:49:34;;;;;;;3.27;1.00;;;;;;;8.53;67.79;100347.08;1778037;78;21166;-58
2021/09/21 04:52:02;;;;;;;4.40;1.22;;;;;;;8.48;68.28;100343.13;1781923;78;21129;-62
2021/09/21 04:54:30;;;;;;;2.12;0.70;;;;;;;8.52;68.18;100346.73;1783808;78;21132;-63
2021/09/21 04:56:59;;;;;;;2.00;0.70;;;;;;;8.57;67.76;100350.31;1741516;80;21034;-64
2021/09/21 04:59:28;;;;;;;2.00;0.60;;;;;;;8.62;67.64;100346.05;1744999;80;21032;-57
2021/09/21 05:01:56;;;;;;;3.65;0.85;;;;;;;8.62;67.69;100346.88;1711446;81;21074;-58
2021/09/21 05:04:23;;;;;;;3.70;0.93;;;;;;;8.62;67.93;100347.36;1719178;81;22717;-57
2021/09/21 05:06:49;;;;;;;3.55;1.10;;;;;;;8.62;67.88;100350.81;1715113;81;21006;-57
2021/09/21 05:09:17;;;;;;;3.67;1.20;;;;;;;8.61;67.78;100337.36;1719566;81;21049;-58
2021/09/21 05:11:45;;;;;;;2.87;1.07;;;;;;;8.64;67.75;100337.14;1716954;81;21102;-58
2021/09/21 05:14:13;;;;;;;3.35;1.10;;;;;;;8.76;67.37;100335.41;1718787;81;21145;-58
2021/09/21 05:16:41;;;;;;;3.50;0.98;;;;;;;8.83;67.06;100334.48;1720045;81;21102;-58
2021/09/21 05:19:11;;;;;;;2.05;0.70;;;;;;;8.85;66.80;100342.59;1718359;81;21379;-58
2021/09/21 05:21:40;;;;;;;4.40;1.20;;;;;;;8.86;66.57;100347.34;1716978;81;21075;-59
2021/09/21 05:24:07;;;;;;;2.35;0.85;;;;;;;8.84;66.26;100344.87;1719135;81;21062;-58
2021/09/21 05:26:34;;;;;;;2.95;1.12;;;;;;;8.87;66.60;100349.03;1721674;81;21627;-57
2021/09/21 05:29:00;;;;;;;3.17;1.00;;;;;;;8.90;66.52;100340.94;1722922;82;21199;-57
2021/09/21 05:31:27;;;;;;;2.33;0.70;;;;;;;8.95;66.11;100348.00;1723069;81;21141;-57
2021/09/21 05:33:54;;;;;;;3.17;1.10;;;;;;;9.03;65.93;100344.82;1722362;81;21077;-57
2021/09/21 05:36:21;;;;;;;3.12;1.07;;;;;;;9.12;65.79;100348.06;1722604;81;21038;-57
2021/09/21 05:38:47;;;;;;;3.72;0.93;;;;;;;9.16;65.24;100349.97;1713980;81;21097;-57
2021/09/21 05:41:13;;;;;;;3.25;0.93;;;;;;;9.13;65.32;100341.02;1717344;81;21127;-56
2021/09/21 05:43:40;;;;;;;2.52;0.80;;;;;;;9.10;65.78;100346.86;1722466;81;21644;-56
2021/09/21 05:46:06;;;;;;;3.92;1.10;;;;;;;9.14;65.83;100351.41;1699240;81;21111;-56
2021/09/21 05:48:33;;;;;;;1.55;0.60;;;;;;;9.15;65.42;100345.70;1683474;84;21151;-56
2021/09/21 05:50:59;;;;;;;2.17;0.60;;;;;;;9.11;64.89;100348.55;1667358;84;21053;-57
2021/09/21 05:53:25;;;;;;;2.60;0.98;;;;;;;9.14;65.34;100344.02;1686388;84;23145;-63
2021/09/21 05:55:52;;;;;;;3.33;1.25;;;;;;;9.22;64.90;100344.28;1690576;84;21119;-63
2021/09/21 05:58:19;;;;;;;2.70;1.10;;;;;;;9.30;64.67;100351.11;1688679;84;21122;-62
2021/09/21 06:00:47;;;;;;;3.90;1.12;;;;;;;9.32;64.44;100342.63;1691069;84;21301;-62
2021/09/21 06:03:13;;;;;;;2.42;0.60;;;;;;;9.27;64.37;100341.66;1686598;84;21079;-61
2021/09/21 06:05:41;;;;;;;3.10;0.72;;;;;;;9.20;63.89;100350.95;1664572;84;21884;-60
2021/09/21 06:08:08;;;;;;;3.72;0.80;;;;;;;9.12;64.16;100342.81;1690094;84;21134;-62
2021/09/21 06:10:35;;;;;;;3.45;1.00;;;;;;;9.12;64.60;100344.12;1690834;84;21161;-62
2021/09/21 06:13:02;;;;;;;2.20;0.60;;;;;;;9.13;64.07;100348.89;1684426;84;21247;-62
2021/09/21 06:15:30;;;;;;;2.65;0.80;;;;;;;9.18;64.20;100341.05;1697887;83;21616;-62
2021/09/21 06:17:58;;;;;;;1.52;0.40;;;;;;;9.30;64.40;100333.55;1691924;82;21517;-60
2021/09/21 06:20:25;;;;;;;3.12;0.90;;;;;;;9.38;63.67;100339.55;1697917;83;21138;-61
2021/09/21 06:22:53;;;;;;;2.02;0.55;;;;;;;9.36;63.47;100336.18;1693467;83;21160;-60
2021/09/21 06:25:20;;;;;;;1.95;0.68;;;;;;;9.34;63.17;100332.84;1688668;83;21629;-61
2021/09/21 06:27:47;;;;;;;2.85;0.70;;;;;;;9.32;63.33;100345.25;1753892;79;21062;-62
2021/09/21 06:30:15;;;;;;;2.35;0.60;;;;;;;9.28;63.67;100334.64;1750690;80;22832;-64
2021/09/21 06:32:43;;;;;;;2.62;0.75;;;;;;;9.25;63.41;100338.80;1754988;81;21050;-65
2021/09/21 06:35:10;;;;;;;1.87;0.50;;;;;;;9.26;63.79;100347.88;1732510;81;21494;-62
2021/09/21 06:37:37;;;;;;;2.58;0.70;;;;;;;9.37;63.61;100350.99;1758625;81;21055;-62
2021/09/21 06:40:06;;;;;;;1.27;0.40;;;;;;;9.39;63.04;100344.31;1754225;81;21066;-61
2021/09/21 06:42:33;;;;;;;2.25;0.68;;;;;;;9.34;63.44;100342.03;1729689;81;21054;-63
2021/09/21 06:45:05;;;;;;;1.57;0.50;;;;;;;9.34;63.57;100353.84;1758999;79;21357;-63
2021/09/21 06:47:32;;;;;;;1.95;0.65;;;;;;;9.29;63.28;100353.36;1766453;79;21058;-64
2021/09/21 06:49:59;;;;;;;3.00;0.60;;;;;;;9.23;63.72;100353.81;1769517;79;21114;-64
2021/09/21 06:52:28;;;;;;;1.62;0.45;;;;;;;9.18;63.82;100354.17;1770275;79;21083;-64
2021/09/21 06:54:57;;;;;;;2.37;0.68;;;;;;;9.15;64.16;100358.83;1770606;79;22587;-62
2021/09/21 06:57:24;;;;;;;3.15;0.68;;;;;;;9.21;64.15;100363.59;1765686;79;21038;-63
2021/09/21 06:59:52;;;;;;;2.25;0.60;;;;;;;9.30;63.78;100364.23;1765383;79;21098;-61
2021/09/21 07:02:18;;;;;;;2.12;0.60;;;;;;;9.36;64.03;100366.86;1736560;79;21125;-62
2021/09/21 07:04:45;;;;;;;3.70;1.10;;;;;;;9.36;64.29;100369.00;1767955;79;21054;-61
2021/09/21 07:07:12;;;;;;;3.10;0.60;;;;;;;9.39;64.31;100366.16;1766137;79;21069;-61
2021/09/21 07:09:40;;;;;;;2.67;0.50;;;;;;;9.38;63.84;100364.50;1766836;79;21109;-63
2021/09/21 07:12:08;;;;;;;3.20;0.60;;;;;;;9.37;63.57;100367.23;1764955;79;21074;-61
2021/09/21 07:14:35;;;;;;;4.17;0.72;;;;;;;9.31;63.35;100371.14;1742084;80;21023;-64
2021/09/21 07:17:02;;;;;;;2.85;1.02;;;;;;;9.28;64.12;100380.59;1740593;79;21039;-62
2021/09/21 07:19:29;;;;;;;6.12;1.07;;;;;;;9.28;64.55;100380.10;1762497;79;21072;-61
2021/09/21 07:21:57;;;;;;;1.82;0.60;;;;;;;9.30;63.93;100386.06;1768903;79;21529;-61
2021/09/21 07:24:24;;;;;;;2.55;0.70;;;;;;;9.27;64.34;100378.90;1762239;79;22391;-63
2021/09/21 07:26:52;;;;;;;1.60;0.60;;;;;;;9.24;64.37;100385.69;1739515;79;21138;-64
2021/09/21 07:29:18;;;;;;;1.60;0.50;;;;;;;9.26;64.69;100379.38;1742421;80;21067;-64
2021/09/21 07:31:45;;;;;;;5.42;0.60;;;;;;;9.36;64.36;100380.83;1737681;79;21723;-62
2021/09/21 07:34:12;;;;;;;2.27;0.78;;;;;;;9.45;63.25;100381.95;1767112;79;21532;-62
2021/09/21 07:36:38;;;;;;;3.70;0.70;;;;;;;9.47;63.37;100387.42;1765859;79;21084;-61
2021/09/21 07:39:06;;;;;;;2.80;0.80;;;;;;;9.49;63.16;100382.89;1766737;79;21035;-60
2021/09/21 07:41:35;;;;;;;3.35;0.57;;;;;;;9.55;63.40;100381.61;1759644;79;21626;-62
2021/09/21 07:44:02;;;;;;;2.70;0.62;;;;;;;9.66;62.31;100376.84;1740652;79;22173;-60
2021/09/21 07:46:29;;;;;;;2.92;0.72;;;;;;;9.71;62.29;100370.75;1770429;79;21045;-62
2021/09/21 07:48:56;;;;;;;1.85;0.60;;;;;;;9.73;62.38;100378.03;1765161;79;21137;-61
2021/09/21 07:51:22;;;;;;;2.10;0.60;;;;;;;9.74;62.07;100375.78;1768571;79;21612;-61
2021/09/21 07:53:49;;;;;;;2.58;0.45;;;;;;;9.78;62.01;100383.77;1737673;80;21124;-61
2021/09/21 07:56:16;;;;;;;1.90;0.60;;;;;;;9.80;62.09;100380.58;1767264;80;21114;-61
2021/09/21 07:58:43;;;;;;;3.37;0.62;;;;;;;9.80;61.91;100379.26;1761913;80;21349;-59
2021/09/21 08:01:09;;;;;;;1.95;0.50;;;;;;;9.76;61.90;100383.55;1765465;79;21097;-62
2021/09/21 08:03:35;;;;;;;2.55;0.70;;;;;;;9.69;62.06;100384.98;1765010;79;21492;-62
2021/09/21 08:06:02;;;;;;;2.67;0.78;;;;;;;9.61;61.88;100383.75;1768865;79;21474;-62
2021/09/21 08:08:29;;;;;;;2.65;0.70;;;;;;;9.56;62.68;100384.58;1765359;79;21168;-63
2021/09/21 08:10:57;;;;;;;2.02;0.53;;;;;;;9.58;62.90;100387.95;1766110;79;21047;-62
2021/09/21 08:13:25;;;;;;;2.17;0.65;;;;;;;9.70;62.61;100384.00;1764264;79;21542;-63
2021/09/21 08:15:51;;;;;;;1.92;0.53;;;;;;;9.78;62.61;100384.26;1773685;79;21047;-62
2021/09/21 08:18:17;;;;;;;3.80;0.78;;;;;;;9.85;62.51;100381.05;1739885;79;20990;-62
2021/09/21 08:20:46;;;;;;;1.98;0.80;;;;;;;9.88;62.11;100377.82;1772327;79;20922;-66
2021/09/21 08:23:12;;;;;;;2.65;0.80;;;;;;;9.85;62.61;100377.56;1767265;79;20943;-62
2021/09/21 08:25:40;;;;;;;3.02;0.80;;;;;;;9.82;62.67;100383.91;1767753;79;21099;-62
2021/09/21 08:28:08;;;;;;;2.35;0.82;;;;;;;9.80;62.33;100377.95;1767058;79;20900;-63
2021/09/21 08:30:35;;;;;;;2.95;0.70;;;;;;;9.78;62.53;100387.72;1763526;79;20904;-61
2021/09/21 08:33:03;;;;;;;3.35;1.07;;;;;;;9.70;62.49;100386.17;1766566;79;21082;-62
2021/09/21 08:35:31;;;;;;;2.67;0.90;;;;;;;9.62;62.54;100390.69;1767131;79;21639;-62
2021/09/21 08:37:59;;;;;;;2.17;0.60;;;;;;;9.55;62.33;100385.55;1765022;79;21043;-62
2021/09/21 08:40:25;;;;;;;2.75;0.68;;;;;;;9.51;62.29;100388.03;1704463;82;21125;-62
2021/09/21 08:42:52;;;;;;;1.55;0.57;;;;;;;9.46;61.78;100380.97;1768498;79;21160;-62
2021/09/21 08:45:19;;;;;;;1.70;0.53;;;;;;;9.49;62.07;100383.37;1767683;79;21233;-64
2021/09/21 08:47:46;;;;;;;2.55;0.65;;;;;;;9.57;62.16;100384.95;1772333;79;21431;-63
2021/09/21 08:50:13;;;;;;;2.42;0.78;;;;;;;9.64;62.08;100384.00;1775191;79;21529;-63
2021/09/21 08:52:41;;;;;;;3.40;0.65;;;;;;;9.70;62.24;100387.48;1769504;79;21684;-63
2021/09/21 08:55:13;;;;;;;2.92;0.78;;;;;;;9.77;61.89;100390.00;1745471;80;22080;-63
2021/09/21 08:57:41;;;;;;;4.22;0.82;;;;;;;9.80;61.78;100387.14;1767361;79;21093;-62
2021/09/21 09:00:14;;;;;;;2.12;0.85;;;;;;;9.80;61.37;100390.23;1741718;80;21286;-64
2021/09/21 09:02:40;;;;;;;2.62;0.75;;;;;;;9.72;61.13;100392.14;1748271;79;21097;-64
2021/09/21 09:05:11;;;;;;;3.95;1.20;;;;;;;9.69;61.45;100401.57;1747932;80;21550;-64
2021/09/21 09:07:52;;;;;;;2.77;0.70;;;;;;;9.64;61.59;100396.66;1744465;80;21415;-64
2021/09/21 09:10:22;;;;;;;2.62;0.50;;;;;;;9.62;61.88;100398.57;1771384;79;21109;-63
2021/09/21 09:12:50;;;;;;;1.85;0.42;;;;;;;9.59;61.68;100404.53;1767962;79;21022;-63
2021/09/21 09:15:19;;;;;;;3.20;0.68;;;;;;;9.55;61.70;100407.02;1763622;79;21128;-64
2021/09/21 09:18:03;;;;;;;2.80;0.85;;;;;;;9.53;61.89;100402.36;1764516;79;21097;-64
2021/09/21 09:20:40;;;;;;;6.50;0.75;;;;;;;9.62;61.33;100402.51;1766099;79;21612;-64
2021/09/21 09:23:08;;;;;;;1.92;0.60;;;;;;;9.68;60.95;100401.20;1735458;80;21039;-65
2021/09/21 09:25:47;;;;;;;3.25;0.70;;;;;;;9.70;60.64;100404.57;1769357;79;21077;-68
2021/09/21 09:28:20;;;;;;;1.45;0.60;;;;;;;9.72;60.64;100424.16;1771683;80;21720;-65
2021/09/21 09:30:47;;;;;;;2.22;0.70;;;;;;;9.71;60.40;100408.02;1771304;79;21446;-64
2021/09/21 09:33:13;;;;;;;1.98;0.60;;;;;;;9.73;60.33;100415.30;1738941;80;21019;-63
2021/09/21 09:35:45;;;;;;;1.40;0.60;;;;;;;9.73;60.05;100410.88;1745700;79;21301;-64
2021/09/21 09:38:15;;;;;;;2.00;0.72;;;;;;;9.75;60.32;100405.51;1742796;80;21481;-64
2021/09/21 09:40:46;;;;;;;4.67;1.20;;;;;;;9.78;60.65;100407.91;1771923;79;21075;-63
2021/09/21 09:43:15;;;;;;;3.65;1.10;;;;;;;9.80;60.63;100405.99;1767396;79;21631;-65
2021/09/21 09:45:43;;;;;;;3.45;0.93;;;;;;;9.83;60.77;100402.68;1768335;79;21059;-64
2021/09/21 09:48:14;;;;;;;2.40;0.75;;;;;;;9.93;60.13;100408.53;1759235;79;21090;-64
2021/09/21 09:50:42;;;;;;;4.25;0.90;;;;;;;10.07;60.21;100414.89;1725409;81;21099;-63
2021/09/21 09:53:19;;;;;;;3.72;1.15;;;;;;;10.09;58.92;100404.25;1758244;79;21055;-64
2021/09/21 09:55:49;;;;;;;2.05;0.53;;;;;;;10.04;59.15;100407.23;1754459;80;21118;-63
2021/09/21 09:58:18;;;;;;;2.60;0.80;;;;;;;10.02;59.52;100410.47;1752709;80;21012;-62
2021/09/21 10:00:45;;;;;;;3.85;0.88;;;;;;;9.98;59.18;100411.64;1730935;81;21100;-63
2021/09/21 10:03:13;;;;;;;2.62;0.82;;;;;;;9.89;59.26;100412.36;1755424;80;21047;-61
2021/09/21 10:05:40;;;;;;;2.47;0.80;;;;;;;9.80;59.98;100418.67;1725901;81;21127;-63
2021/09/21 10:08:09;;;;;;;2.22;0.70;;;;;;;9.75;59.93;100415.56;1754975;80;22318;-64
2021/09/21 10:10:40;;;;;;;3.67;1.35;;;;;;;9.75;59.71;100415.56;1681487;83;21130;-63
2021/09/21 10:13:13;;;;;;;3.37;1.20;;;;;;;9.76;60.09;100422.96;1701618;83;22205;-63
2021/09/21 10:15:42;;;;;;;2.75;0.70;;;;;;;9.75;60.52;100414.25;1708665;82;21371;-63
2021/09/21 10:18:21;;;;;;;2.58;0.55;;;;;;;9.77;60.15;100414.96;1680292;83;21185;-63
2021/09/21 10:21:01;;;;;;;3.12;0.60;;;;;;;9.79;60.09;100409.59;1753301;80;21145;-62
2021/09/21 10:23:37;;;;;;;2.45;0.68;;;;;;;9.81;60.00;100423.45;1752722;80;21208;-62
2021/09/21 10:26:17;;;;;;;3.12;0.90;;;;;;;9.82;59.70;100420.70;1758165;79;21106;-61
2021/09/21 10:28:49;;;;;;;1.42;0.53;;;;;;;9.89;59.71;100426.81;1730946;80;21058;-62
2021/09/21 10:31:22;;;;;;;2.00;0.50;;;;;;;9.85;59.80;100421.79;1756595;80;21133;-61
2021/09/21 10:33:51;;;;;;;2.50;0.80;;;;;;;9.79;60.34;100436.70;1759300;80;21097;-62
2021/09/21 10:36:32;;;;;;;1.95;0.60;;;;;;;9.76;60.49;100426.41;1757329;80;21055;-63
2021/09/21 10:39:10;;;;;;;1.72;0.65;;;;;;;9.79;60.76;100435.39;1727175;80;21071;-62
2021/09/21 10:41:54;;;;;;;;;;;;;;;9.89;60.74;100421.56;1731793;81;21055;-62
2021/09/21 10:44:22;;;;;;;2.15;0.70;;;;;;;9.98;59.96;100425.61;1761341;80;20474;-63
2021/09/21 10:46:57;;;;;;;2.02;0.40;;;;;;;9.96;59.49;100445.09;1758905;79;21011;-62
2021/09/21 10:49:39;;;;;;;1.77;0.53;;;;;;;9.96;59.64;100428.02;1686640;82;21061;-62
2021/09/21 10:52:12;;;;;;;2.17;0.80;;;;;;;9.93;59.69;100430.88;1706863;82;21075;-64
2021/09/21 10:54:53;;;;;;;1.22;0.33;;;;;;;9.85;60.05;100428.36;1730707;80;21537;-63
2021/09/21 10:57:34;;;;;;;2.98;0.78;;;;;;;9.83;59.99;100422.84;1710028;82;21109;-63
2021/09/21 11:00:09;;;;;;;2.25;0.70;;;;;;;9.81;60.86;100429.53;1678206;83;21070;-62
2021/09/21 11:02:40;;;;;;;2.17;0.60;;;;;;;9.88;60.96;100440.90;1713374;81;21058;-64
2021/09/21 11:05:17;;;;;;;3.12;0.55;;;;;;;9.98;60.31;100432.67;1690419;82;21068;-63
2021/09/21 11:07:58;;;;;;;2.60;0.70;;;;;;;10.02;59.96;100430.18;1718158;81;21021;-62
2021/09/21 11:10:31;;;;;;;2.47;0.80;;;;;;;9.97;59.75;100437.09;1715927;81;21049;-63
2021/09/21 11:12:58;;;;;;;2.95;0.98;;;;;;;9.89;60.25;100442.09;1724697;82;21128;-63
2021/09/21 11:15:27;;;;;;;5.35;1.20;;;;;;;9.83;60.52;100432.91;1724408;81;21151;-64
2021/09/21 11:18:11;;;;;;;2.02;0.72;;;;;;;9.81;60.58;100437.90;1716973;81;21143;-65
2021/09/21 11:20:52;;;;;;;5.00;0.85;;;;;;;9.77;60.47;100433.36;1719610;81;21050;-63
2021/09/21 11:23:22;;;;;;;3.37;1.00;;;;;;;9.74;60.72;100433.58;1721141;81;21070;-63
2021/09/21 11:25:51;;;;;;;2.30;0.60;;;;;;;9.69;60.70;100435.72;1721150;81;21144;-61
2021/09/21 11:28:19;;;;;;;2.58;0.70;;;;;;;9.69;60.74;100446.23;1722959;81;21116;-63
2021/09/21 11:30:46;;;;;;;2.52;0.70;;;;;;;9.71;61.09;100439.06;1725274;81;21518;-64
2021/09/21 11:33:24;;;;;;;2.33;0.68;;;;;;;9.78;60.59;100435.50;1726656;81;21050;-66
2021/09/21 11:35:59;;;;;;;1.77;0.55;;;;;;;9.89;60.15;100432.90;1718672;82;21037;-63
2021/09/21 11:38:29;;;;;;;3.17;0.62;;;;;;;9.96;59.62;100445.09;1715697;81;21009;-61
2021/09/21 11:40:56;;;;;;;3.85;0.72;;;;;;;9.96;59.98;100450.36;1686036;83;21150;-61
2021/09/21 11:43:23;;;;;;;4.42;0.60;;;;;;;9.98;60.22;100444.50;1721794;83;23325;-61
2021/09/21 11:45:51;;;;;;;2.30;0.65;;;;;;;9.98;59.63;100440.55;1716072;81;21079;-61
2021/09/21 11:48:19;;;;;;;4.22;0.80;;;;;;;10.00;59.73;100436.87;1680749;81;21072;-60
2021/09/21 11:50:46;;;;;;;3.80;0.85;;;;;;;10.07;59.88;100443.80;1718915;81;21083;-63
2021/09/21 11:53:16;;;;;;;2.25;0.60;;;;;;;10.12;59.55;100444.29;1714397;81;21140;-62
2021/09/21 11:55:45;;;;;;;1.77;0.55;;;;;;;10.18;59.54;100449.53;1686052;82;21072;-63